Ufo 3 — IUNV — position and weather

sailwx.info

Track history (hours):
 
Tides and Currents Weather Stations Pressure Air Temp Water Temp Dewpoint Dewpoint Depression Visibility Wind Speed Wind Dir Waves Ship Positions

Ufo 3

Last reported at 2016-Jul-24 17:34 UTC. Time now 2016-Jul-25 06:15 UTC.
Position N 44°05' E 009°44'.

Length 28 m.

Type: Passenger vessel. MMSI: 247031600.

Date/timePositionNaut miles runAvg speedWind from/ knotsBaromVisibWave heightAir tempDewpointWater temp
2016-Jul-24 17:34N 44°05' E 009°44'0 0.0
2016-Jul-24 10:21N 44°05' E 009°44'5 5.7
2016-Jul-24 09:33N 44°05' E 009°50'2 1.6
2016-Jul-24 08:33N 44°04' E 009°51'1 0.3
2016-Jul-24 04:34N 44°03' E 009°51'0 0.0
2016-Jul-23 16:18N 44°03' E 009°51'6 1.0
2016-Jul-23 10:33N 44°06' E 009°44'6 5.6
2016-Jul-23 09:33N 44°03' E 009°50'5 4.8
2016-Jul-23 08:27N 44°06' E 009°44'6 0.4
2016-Jul-22 16:25N 44°03' E 009°51'6 1.1
2016-Jul-22 11:17N 44°06' E 009°44'5 7.6
2016-Jul-22 10:34N 44°03' E 009°51'3 3.0
2016-Jul-22 09:33N 44°06' E 009°50'3 0.2
2016-Jul-21 17:34N 44°03' E 009°50'1111.0
2016-Jul-21 16:33N 44°08' E 009°37'6 5.0
2016-Jul-21 15:24N 44°06' E 009°44'5 6.2
2016-Jul-21 14:34N 44°03' E 009°50'3 2.9
2016-Jul-21 13:33N 44°04' E 009°46'2 0.8
2016-Jul-21 10:26N 44°06' E 009°44'8 8.7
2016-Jul-21 09:33N 44°04' E 009°54'3 2.9
2016-Jul-21 08:33N 44°03' E 009°51'3 2.8
2016-Jul-21 07:33N 44°06' E 009°50'3 2.7
2016-Jul-21 06:33N 44°03' E 009°50'0 0.0
2016-Jul-20 15:23N 44°03' E 009°51'2 2.2
2016-Jul-20 14:33N 44°05' E 009°51'3 3.1
2016-Jul-20 13:34N 44°04' E 009°47'7 5.6
2016-Jul-20 12:20N 44°08' E 009°39'4 1.5
2016-Jul-20 09:34N 44°06' E 009°44'8 7.8
2016-Jul-20 08:34N 44°04' E 009°55'4 0.3
2016-Jul-19 16:34N 44°03' E 009°49'5 2.3
2016-Jul-19 14:26N 44°06' E 009°44'5 5.9
2016-Jul-19 13:33N 44°03' E 009°50'0 0.0
2016-Jul-19 12:33N 44°03' E 009°50'0 0.3
2016-Jul-19 11:34N 44°03' E 009°50'0 0.0
2016-Jul-19 04:04N 44°03' E 009°50'0 0.0
2016-Jul-18 16:30N 44°03' E 009°50'0 0.2
2016-Jul-18 15:33N 44°03' E 009°50'5 1.7
2016-Jul-18 12:19N 44°06' E 009°44'5 7.0
2016-Jul-18 11:33N 44°03' E 009°50'0 0.0
2016-Jul-18 10:33N 44°03' E 009°50'2 1.9
2016-Jul-18 09:34N 44°04' E 009°48'8 6.5
2016-Jul-18 08:22N 44°08' E 009°39'1 0.8
2016-Jul-18 07:33N 44°07' E 009°38'10 3.2
2016-Jul-18 04:33N 44°03' E 009°50'3 0.3
2016-Jul-17 16:34N 44°06' E 009°50'0 0.0
2016-Jul-17 15:33N 44°06' E 009°50'3 3.1
2016-Jul-17 14:33N 44°03' E 009°50'0 0.0
2016-Jul-17 04:33N 44°03' E 009°50'0 0.0
2016-Jul-16 23:30N 44°03' E 009°50'0 0.0
2016-Jul-16 22:33N 44°03' E 009°50'0 0.0
2016-Jul-16 21:33N 44°03' E 009°50'0 0.0
2016-Jul-16 20:34N 44°03' E 009°50'0 0.0
2016-Jul-16 19:34N 44°03' E 009°50'0 0.0
2016-Jul-16 18:33N 44°03' E 009°50'3 3.1
2016-Jul-16 17:33N 44°06' E 009°50'3 3.0
2016-Jul-16 16:34N 44°04' E 009°52'1 1.0
2016-Jul-16 15:34N 44°03' E 009°50'1 1.5
2016-Jul-16 14:34N 44°04' E 009°52'2 1.9
2016-Jul-16 13:34N 44°02' E 009°50'2 1.9
2016-Jul-16 12:33N 44°04' E 009°52'2 1.9
2016-Jul-16 11:33N 44°04' E 009°55'4 3.7
2016-Jul-16 10:33N 44°02' E 009°50'1 0.9
2016-Jul-16 09:34N 44°03' E 009°50'0 0.0
2016-Jul-16 08:34N 44°03' E 009°50'0 0.0
2016-Jul-15 16:07N 44°03' E 009°51'1 1.1
2016-Jul-15 15:33N 44°03' E 009°51'2 1.7
2016-Jul-15 14:34N 44°03' E 009°49'9 6.4
2016-Jul-15 13:09N 44°09' E 009°39'0 0.0
2016-Jul-15 12:07N 44°09' E 009°39'4 2.5
2016-Jul-15 10:27N 44°06' E 009°44'5 6.0
2016-Jul-15 09:33N 44°03' E 009°50'7 3.2
2016-Jul-15 07:30N 44°07' E 009°42'7 7.5
2016-Jul-15 06:33N 44°03' E 009°51'  
Track history (hours):
 
Tides and Currents Weather Stations Pressure Air Temp Water Temp Dewpoint Dewpoint Depression Visibility Wind Speed Wind Dir Waves Ship Positions

Ufo 3

Last reported at 2016-Jul-24 17:34 UTC. Time now 2016-Jul-25 06:15 UTC.
Position N 44°05' E 009°44'.

Length 28 m.

Type: Passenger vessel. MMSI: 247031600.

Date/timePositionNaut miles runAvg speedWind from/ knotsBaromVisibWave heightAir tempDewpointWater temp
2016-Jul-24 17:34N 44°05' E 009°44'0 0.0
2016-Jul-24 10:21N 44°05' E 009°44'5 5.7
2016-Jul-24 09:33N 44°05' E 009°50'2 1.6
2016-Jul-24 08:33N 44°04' E 009°51'1 0.3
2016-Jul-24 04:34N 44°03' E 009°51'0 0.0
2016-Jul-23 16:18N 44°03' E 009°51'6 1.0
2016-Jul-23 10:33N 44°06' E 009°44'6 5.6
2016-Jul-23 09:33N 44°03' E 009°50'5 4.8
2016-Jul-23 08:27N 44°06' E 009°44'6 0.4
2016-Jul-22 16:25N 44°03' E 009°51'6 1.1
2016-Jul-22 11:17N 44°06' E 009°44'5 7.6
2016-Jul-22 10:34N 44°03' E 009°51'3 3.0
2016-Jul-22 09:33N 44°06' E 009°50'3 0.2
2016-Jul-21 17:34N 44°03' E 009°50'1111.0
2016-Jul-21 16:33N 44°08' E 009°37'6 5.0
2016-Jul-21 15:24N 44°06' E 009°44'5 6.2
2016-Jul-21 14:34N 44°03' E 009°50'3 2.9
2016-Jul-21 13:33N 44°04' E 009°46'2 0.8
2016-Jul-21 10:26N 44°06' E 009°44'8 8.7
2016-Jul-21 09:33N 44°04' E 009°54'3 2.9
2016-Jul-21 08:33N 44°03' E 009°51'3 2.8
2016-Jul-21 07:33N 44°06' E 009°50'3 2.7
2016-Jul-21 06:33N 44°03' E 009°50'0 0.0
2016-Jul-20 15:23N 44°03' E 009°51'2 2.2
2016-Jul-20 14:33N 44°05' E 009°51'3 3.1
2016-Jul-20 13:34N 44°04' E 009°47'7 5.6
2016-Jul-20 12:20N 44°08' E 009°39'4 1.5
2016-Jul-20 09:34N 44°06' E 009°44'8 7.8
2016-Jul-20 08:34N 44°04' E 009°55'4 0.3
2016-Jul-19 16:34N 44°03' E 009°49'5 2.3
2016-Jul-19 14:26N 44°06' E 009°44'5 5.9
2016-Jul-19 13:33N 44°03' E 009°50'0 0.0
2016-Jul-19 12:33N 44°03' E 009°50'0 0.3
2016-Jul-19 11:34N 44°03' E 009°50'0 0.0
2016-Jul-19 04:04N 44°03' E 009°50'0 0.0
2016-Jul-18 16:30N 44°03' E 009°50'0 0.2
2016-Jul-18 15:33N 44°03' E 009°50'5 1.7
2016-Jul-18 12:19N 44°06' E 009°44'5 7.0
2016-Jul-18 11:33N 44°03' E 009°50'0 0.0
2016-Jul-18 10:33N 44°03' E 009°50'2 1.9
2016-Jul-18 09:34N 44°04' E 009°48'8 6.5
2016-Jul-18 08:22N 44°08' E 009°39'1 0.8
2016-Jul-18 07:33N 44°07' E 009°38'10 3.2
2016-Jul-18 04:33N 44°03' E 009°50'3 0.3
2016-Jul-17 16:34N 44°06' E 009°50'0 0.0
2016-Jul-17 15:33N 44°06' E 009°50'3 3.1
2016-Jul-17 14:33N 44°03' E 009°50'0 0.0
2016-Jul-17 04:33N 44°03' E 009°50'0 0.0
2016-Jul-16 23:30N 44°03' E 009°50'0 0.0
2016-Jul-16 22:33N 44°03' E 009°50'0 0.0
2016-Jul-16 21:33N 44°03' E 009°50'0 0.0
2016-Jul-16 20:34N 44°03' E 009°50'0 0.0
2016-Jul-16 19:34N 44°03' E 009°50'0 0.0
2016-Jul-16 18:33N 44°03' E 009°50'3 3.1
2016-Jul-16 17:33N 44°06' E 009°50'3 3.0
2016-Jul-16 16:34N 44°04' E 009°52'1 1.0
2016-Jul-16 15:34N 44°03' E 009°50'1 1.5
2016-Jul-16 14:34N 44°04' E 009°52'2 1.9
2016-Jul-16 13:34N 44°02' E 009°50'2 1.9
2016-Jul-16 12:33N 44°04' E 009°52'2 1.9
2016-Jul-16 11:33N 44°04' E 009°55'4 3.7
2016-Jul-16 10:33N 44°02' E 009°50'1 0.9
2016-Jul-16 09:34N 44°03' E 009°50'0 0.0
2016-Jul-16 08:34N 44°03' E 009°50'0 0.0
2016-Jul-15 16:07N 44°03' E 009°51'1 1.1
2016-Jul-15 15:33N 44°03' E 009°51'2 1.7
2016-Jul-15 14:34N 44°03' E 009°49'9 6.4
2016-Jul-15 13:09N 44°09' E 009°39'0 0.0
2016-Jul-15 12:07N 44°09' E 009°39'4 2.5
2016-Jul-15 10:27N 44°06' E 009°44'5 6.0
2016-Jul-15 09:33N 44°03' E 009°50'7 3.2
2016-Jul-15 07:30N 44°07' E 009°42'7 7.5
2016-Jul-15 06:33N 44°03' E 009°51'  

Dump ship's entire track history